createdAt,value
2023-01-27T00:00:49.221Z,0
2023-01-27T00:01:49.219Z,0
2023-01-27T00:02:49.231Z,0
2023-01-27T00:03:49.268Z,0
2023-01-27T00:04:49.218Z,0
2023-01-27T00:05:49.222Z,0
2023-01-27T00:06:49.221Z,0
2023-01-27T00:07:49.222Z,0
2023-01-27T00:08:49.224Z,0
2023-01-27T00:09:49.246Z,0
2023-01-27T00:10:49.225Z,0
2023-01-27T00:11:49.227Z,0
2023-01-27T00:12:49.223Z,0
2023-01-27T00:13:49.244Z,0
2023-01-27T00:14:49.241Z,0
2023-01-27T00:15:49.236Z,0
2023-01-27T00:16:49.227Z,0
2023-01-27T00:17:49.226Z,0
2023-01-27T00:18:49.232Z,0
2023-01-27T00:19:49.227Z,0
2023-01-27T00:20:49.227Z,0
2023-01-27T00:21:49.228Z,0
2023-01-27T00:22:49.230Z,0
2023-01-27T00:23:49.251Z,0
2023-01-27T00:24:49.228Z,0
2023-01-27T00:25:49.257Z,0
2023-01-27T00:26:49.233Z,0
2023-01-27T00:27:49.226Z,0
2023-01-27T00:28:49.229Z,0
2023-01-27T00:29:49.231Z,0
2023-01-27T00:30:49.261Z,0
2023-01-27T00:31:49.282Z,0
2023-01-27T00:32:49.232Z,0
2023-01-27T00:33:49.238Z,0
2023-01-27T00:34:49.232Z,0
2023-01-27T00:35:49.230Z,0
2023-01-27T00:36:49.239Z,0
2023-01-27T00:37:49.234Z,0
2023-01-27T00:38:49.234Z,0
2023-01-27T00:39:49.234Z,0
2023-01-27T00:40:49.239Z,0
2023-01-27T00:41:49.262Z,0
2023-01-27T00:42:49.231Z,0
2023-01-27T00:43:49.233Z,0
2023-01-27T00:44:49.235Z,0
2023-01-27T00:45:49.231Z,0
2023-01-27T00:46:49.430Z,0
2023-01-27T00:47:49.235Z,0
2023-01-27T00:48:49.234Z,0
2023-01-27T00:49:49.234Z,0
2023-01-27T00:50:49.237Z,0
2023-01-27T00:51:49.235Z,0
2023-01-27T00:52:49.236Z,0
2023-01-27T00:53:49.236Z,0
2023-01-27T00:54:49.237Z,0
2023-01-27T00:55:49.241Z,0
2023-01-27T00:56:49.241Z,0
2023-01-27T00:57:49.262Z,0
2023-01-27T00:58:49.245Z,0
2023-01-27T00:59:49.237Z,0
2023-01-27T01:00:49.245Z,0
2023-01-27T01:01:49.303Z,0
2023-01-27T01:02:49.298Z,0
2023-01-27T01:03:49.243Z,0
2023-01-27T01:04:49.240Z,0
2023-01-27T01:05:49.237Z,0
2023-01-27T01:06:49.238Z,0
2023-01-27T01:07:49.245Z,0
2023-01-27T01:08:49.239Z,0
2023-01-27T01:09:49.243Z,0
2023-01-27T01:10:49.236Z,0
2023-01-27T01:11:49.240Z,0
2023-01-27T01:12:49.239Z,0
2023-01-27T01:13:49.263Z,0
2023-01-27T01:14:49.249Z,0
2023-01-27T01:15:49.249Z,0
2023-01-27T01:16:49.241Z,0
2023-01-27T01:17:49.241Z,0
2023-01-27T01:18:49.254Z,0
2023-01-27T01:19:49.251Z,0
2023-01-27T01:20:49.256Z,0
2023-01-27T01:21:49.243Z,0
2023-01-27T01:22:49.245Z,0
2023-01-27T01:23:49.321Z,0
2023-01-27T01:24:49.257Z,0
2023-01-27T01:25:49.246Z,0
2023-01-27T01:26:49.258Z,0
2023-01-27T01:27:49.245Z,0
2023-01-27T01:28:49.253Z,0
2023-01-27T01:29:49.273Z,0
2023-01-27T01:30:49.280Z,0
2023-01-27T01:31:49.268Z,0
2023-01-27T01:32:49.250Z,0
2023-01-27T01:33:49.253Z,0
2023-01-27T01:34:49.246Z,0
2023-01-27T01:35:49.253Z,0
2023-01-27T01:36:49.249Z,0
2023-01-27T01:37:49.250Z,0
2023-01-27T01:38:49.297Z,0
2023-01-27T01:39:49.255Z,0
2023-01-27T01:40:49.253Z,0
2023-01-27T01:41:49.250Z,0
2023-01-27T01:42:49.246Z,0
2023-01-27T01:43:49.249Z,0
2023-01-27T01:44:49.248Z,0
2023-01-27T01:45:49.273Z,0
2023-01-27T01:46:49.259Z,0
2023-01-27T01:47:49.248Z,0
2023-01-27T01:48:49.249Z,0
2023-01-27T01:49:49.250Z,0
2023-01-27T01:50:49.249Z,0
2023-01-27T01:51:49.254Z,0
2023-01-27T01:52:49.248Z,0
2023-01-27T01:53:49.250Z,0
2023-01-27T01:54:49.251Z,0
2023-01-27T01:55:49.255Z,0
2023-01-27T01:56:49.249Z,0
2023-01-27T01:57:49.263Z,0
2023-01-27T01:58:49.254Z,0
2023-01-27T01:59:49.252Z,0
2023-01-27T02:00:49.329Z,0
2023-01-27T02:01:49.277Z,0
2023-01-27T02:02:49.285Z,0
2023-01-27T02:03:49.255Z,0
2023-01-27T02:04:49.249Z,0
2023-01-27T02:05:49.254Z,0
2023-01-27T02:06:49.259Z,0
2023-01-27T02:07:49.254Z,0
2023-01-27T02:08:49.251Z,0
2023-01-27T02:09:49.252Z,0
2023-01-27T02:10:49.253Z,0
2023-01-27T02:11:49.254Z,0
2023-01-27T02:12:49.252Z,0
2023-01-27T02:13:49.255Z,0
2023-01-27T02:14:49.251Z,0
2023-01-27T02:15:49.253Z,0
2023-01-27T02:16:49.327Z,0
2023-01-27T02:17:49.288Z,0
2023-01-27T02:18:49.254Z,0
2023-01-27T02:19:49.256Z,0
2023-01-27T02:20:49.256Z,0
2023-01-27T02:21:49.728Z,0
2023-01-27T02:22:49.256Z,0
2023-01-27T02:23:49.298Z,0
2023-01-27T02:24:49.254Z,0
2023-01-27T02:25:49.253Z,0
2023-01-27T02:26:49.253Z,0
2023-01-27T02:27:49.254Z,0
2023-01-27T02:28:49.257Z,0
2023-01-27T02:29:49.253Z,0
2023-01-27T02:30:49.337Z,0
2023-01-27T02:31:49.315Z,0
2023-01-27T02:32:49.265Z,0
2023-01-27T02:33:49.280Z,0
2023-01-27T02:34:49.258Z,0
2023-01-27T02:35:49.253Z,0
2023-01-27T02:36:49.257Z,0
2023-01-27T02:37:49.258Z,0
2023-01-27T02:38:49.259Z,0
2023-01-27T02:39:49.255Z,0
2023-01-27T02:40:49.257Z,0
2023-01-27T02:41:49.256Z,0
2023-01-27T02:42:49.261Z,0
2023-01-27T02:43:49.256Z,0
2023-01-27T02:44:49.264Z,0
2023-01-27T02:45:49.296Z,0
2023-01-27T02:46:49.259Z,0
2023-01-27T02:47:49.266Z,0
2023-01-27T02:48:49.264Z,0
2023-01-27T02:49:49.288Z,0
2023-01-27T02:50:49.276Z,0
2023-01-27T02:51:49.262Z,0
2023-01-27T02:52:49.260Z,0
2023-01-27T02:53:49.263Z,0
2023-01-27T02:54:49.261Z,0
2023-01-27T02:55:49.264Z,0
2023-01-27T02:56:49.266Z,0
2023-01-27T02:57:49.261Z,0
2023-01-27T02:58:49.265Z,0
2023-01-27T02:59:49.260Z,0
2023-01-27T03:00:49.261Z,0
2023-01-27T03:01:49.305Z,0
2023-01-27T03:02:49.280Z,0
2023-01-27T03:03:49.261Z,0
2023-01-27T03:04:49.259Z,0
2023-01-27T03:05:49.286Z,0
2023-01-27T03:06:49.268Z,0
2023-01-27T03:07:49.260Z,0
2023-01-27T03:08:49.262Z,0
2023-01-27T03:09:49.265Z,0
2023-01-27T03:10:49.259Z,0
2023-01-27T03:11:49.262Z,0
2023-01-27T03:12:49.261Z,0
2023-01-27T03:13:49.262Z,0
2023-01-27T03:14:49.264Z,0
2023-01-27T03:15:49.281Z,0
2023-01-27T03:16:49.270Z,0
2023-01-27T03:17:49.269Z,0
2023-01-27T03:18:49.268Z,0
2023-01-27T03:19:49.269Z,0
2023-01-27T03:20:49.293Z,0
2023-01-27T03:21:49.302Z,0
2023-01-27T03:22:49.275Z,0
2023-01-27T03:23:49.456Z,0
2023-01-27T03:24:49.281Z,0
2023-01-27T03:25:49.344Z,0
2023-01-27T03:26:49.283Z,0
2023-01-27T03:27:49.281Z,0
2023-01-27T03:28:49.281Z,0
2023-01-27T03:29:49.283Z,0
2023-01-27T03:30:49.350Z,0
2023-01-27T03:31:49.358Z,0
2023-01-27T03:32:49.293Z,0
2023-01-27T03:33:49.301Z,0
2023-01-27T03:34:49.292Z,0
2023-01-27T03:35:49.307Z,0
2023-01-27T03:36:49.300Z,0
2023-01-27T03:37:49.324Z,0
2023-01-27T03:38:49.292Z,0
2023-01-27T03:39:49.298Z,0
2023-01-27T03:40:49.303Z,0
2023-01-27T03:41:49.297Z,0
2023-01-27T03:42:49.301Z,0
2023-01-27T03:43:49.301Z,0
2023-01-27T03:44:49.302Z,0
2023-01-27T03:45:49.325Z,0
2023-01-27T03:46:49.305Z,0
2023-01-27T03:47:49.304Z,0
2023-01-27T03:48:49.302Z,0
2023-01-27T03:49:49.320Z,0
2023-01-27T03:50:49.308Z,0
2023-01-27T03:51:49.309Z,0
2023-01-27T03:52:49.314Z,0
2023-01-27T03:53:49.335Z,0
2023-01-27T03:54:49.315Z,0
2023-01-27T03:55:49.315Z,0
2023-01-27T03:56:49.315Z,0
2023-01-27T03:57:49.315Z,0
2023-01-27T03:58:49.319Z,0
2023-01-27T03:59:49.322Z,0
2023-01-27T04:00:49.324Z,0
2023-01-27T04:01:49.403Z,0
2023-01-27T04:02:49.400Z,0
2023-01-27T04:03:49.328Z,0
2023-01-27T04:04:49.331Z,0
2023-01-27T04:05:49.333Z,0
2023-01-27T04:06:49.335Z,0
2023-01-27T04:07:49.332Z,0
2023-01-27T04:08:49.336Z,0
2023-01-27T04:09:49.375Z,0
2023-01-27T04:10:49.338Z,0
2023-01-27T04:11:49.339Z,0
2023-01-27T04:12:49.349Z,0
2023-01-27T04:13:49.345Z,0
2023-01-27T04:14:49.346Z,0
2023-01-27T04:15:49.373Z,0
2023-01-27T04:16:49.351Z,0
2023-01-27T04:17:49.348Z,0
2023-01-27T04:18:49.828Z,0
2023-01-27T04:19:49.353Z,0
2023-01-27T04:20:49.356Z,0
2023-01-27T04:21:49.356Z,0
2023-01-27T04:22:49.361Z,0
2023-01-27T04:23:49.388Z,0
2023-01-27T04:24:49.364Z,0
2023-01-27T04:25:49.399Z,0
2023-01-27T04:26:49.363Z,0
2023-01-27T04:27:49.362Z,0
2023-01-27T04:28:49.362Z,0
2023-01-27T04:29:49.398Z,0
2023-01-27T04:30:49.413Z,0
2023-01-27T04:31:49.485Z,0
2023-01-27T04:32:49.370Z,0
2023-01-27T04:33:49.374Z,0
2023-01-27T04:34:49.373Z,0
2023-01-27T04:35:49.379Z,0
2023-01-27T04:36:49.383Z,0
2023-01-27T04:37:49.377Z,0
2023-01-27T04:38:49.377Z,0
2023-01-27T04:39:49.379Z,0
2023-01-27T04:40:49.382Z,0
2023-01-27T04:41:49.412Z,0
2023-01-27T04:42:49.393Z,0
2023-01-27T04:43:49.387Z,0
2023-01-27T04:44:49.395Z,0
2023-01-27T04:45:49.440Z,0
2023-01-27T04:46:49.396Z,0
2023-01-27T04:47:49.396Z,0
2023-01-27T04:48:49.429Z,0
2023-01-27T04:49:49.401Z,0
2023-01-27T04:50:49.404Z,0
2023-01-27T04:51:49.406Z,0
2023-01-27T04:52:49.403Z,0
2023-01-27T04:53:49.414Z,0
2023-01-27T04:54:49.405Z,0
2023-01-27T04:55:49.407Z,0
2023-01-27T04:56:49.406Z,0
2023-01-27T04:57:49.439Z,0
2023-01-27T04:58:49.410Z,0
2023-01-27T04:59:49.411Z,0
2023-01-27T05:00:49.412Z,0
2023-01-27T05:01:49.443Z,0
2023-01-27T05:02:49.435Z,0
2023-01-27T05:03:49.415Z,0
2023-01-27T05:04:49.411Z,0
2023-01-27T05:05:49.415Z,0
2023-01-27T05:06:49.419Z,0
2023-01-27T05:07:49.423Z,0
2023-01-27T05:08:49.424Z,0
2023-01-27T05:09:49.424Z,0
2023-01-27T05:10:49.426Z,0
2023-01-27T05:11:49.441Z,0
2023-01-27T05:12:49.432Z,0
2023-01-27T05:13:49.460Z,0
2023-01-27T05:14:49.437Z,0
2023-01-27T05:15:49.512Z,0
2023-01-27T05:16:49.504Z,0
2023-01-27T05:17:49.440Z,0
2023-01-27T05:18:49.438Z,0
2023-01-27T05:19:49.446Z,0
2023-01-27T05:20:51.471Z,0
2023-01-27T05:21:49.460Z,0
2023-01-27T05:22:49.453Z,0
2023-01-27T05:23:49.542Z,0
2023-01-27T05:24:49.447Z,0
2023-01-27T05:25:49.451Z,0
2023-01-27T05:26:49.448Z,0
2023-01-27T05:27:49.452Z,0
2023-01-27T05:28:49.455Z,0
2023-01-27T05:29:49.477Z,0
2023-01-27T05:30:49.554Z,0
2023-01-27T05:31:49.475Z,0
2023-01-27T05:32:49.457Z,0
2023-01-27T05:33:49.454Z,0
2023-01-27T05:34:49.456Z,0
2023-01-27T05:35:49.464Z,0
2023-01-27T05:36:49.456Z,0
2023-01-27T05:37:49.467Z,0
2023-01-27T05:38:49.457Z,0
2023-01-27T05:39:49.463Z,0
2023-01-27T05:40:49.462Z,0
2023-01-27T05:41:49.461Z,0
2023-01-27T05:42:49.468Z,0
2023-01-27T05:43:49.469Z,0
2023-01-27T05:44:50.556Z,0
2023-01-27T05:45:49.499Z,0
2023-01-27T05:46:49.503Z,0
2023-01-27T05:47:49.470Z,0
2023-01-27T05:48:49.473Z,0
2023-01-27T05:49:49.470Z,0
2023-01-27T05:50:49.471Z,0
2023-01-27T05:51:49.469Z,0
2023-01-27T05:52:49.474Z,0
2023-01-27T05:53:49.483Z,0
2023-01-27T05:54:49.481Z,0
2023-01-27T05:55:49.481Z,0
2023-01-27T05:56:49.479Z,0
2023-01-27T05:57:49.479Z,0
2023-01-27T05:58:49.485Z,0
2023-01-27T05:59:49.492Z,0
2023-01-27T06:00:49.489Z,0
2023-01-27T06:01:49.607Z,0
2023-01-27T06:02:49.511Z,0
2023-01-27T06:03:49.488Z,0
2023-01-27T06:04:49.490Z,0
2023-01-27T06:05:49.491Z,0
2023-01-27T06:06:49.488Z,0
2023-01-27T06:07:49.496Z,0
2023-01-27T06:08:49.493Z,0
2023-01-27T06:09:49.491Z,0
2023-01-27T06:10:49.501Z,0
2023-01-27T06:11:49.491Z,0
2023-01-27T06:12:49.497Z,0
2023-01-27T06:13:49.499Z,0
2023-01-27T06:14:49.502Z,0
2023-01-27T06:15:49.503Z,0
2023-01-27T06:16:49.702Z,0
2023-01-27T06:17:51.408Z,0
2023-01-27T06:18:49.511Z,0
2023-01-27T06:19:49.504Z,0
2023-01-27T06:20:49.506Z,0
2023-01-27T06:21:49.513Z,0
2023-01-27T06:22:49.505Z,2
2023-01-27T06:23:49.785Z,2
2023-01-27T06:24:49.510Z,2
2023-01-27T06:25:49.558Z,2
2023-01-27T06:26:49.506Z,2
2023-01-27T06:27:49.507Z,4
2023-01-27T06:28:49.510Z,4
2023-01-27T06:29:49.507Z,4
2023-01-27T06:30:49.523Z,4
2023-01-27T06:31:49.523Z,4
2023-01-27T06:32:49.510Z,8
2023-01-27T06:33:49.539Z,8
2023-01-27T06:34:49.512Z,8
2023-01-27T06:35:49.519Z,8
2023-01-27T06:36:49.517Z,8
2023-01-27T06:37:49.515Z,15
2023-01-27T06:38:49.523Z,15
2023-01-27T06:39:49.517Z,19
2023-01-27T06:40:49.519Z,19
2023-01-27T06:41:49.518Z,19
2023-01-27T06:42:49.514Z,26
2023-01-27T06:43:49.540Z,26
2023-01-27T06:44:49.525Z,26
2023-01-27T06:45:49.520Z,26
2023-01-27T06:46:49.521Z,26
2023-01-27T06:47:49.525Z,37
2023-01-27T06:48:49.524Z,37
2023-01-27T06:49:49.549Z,37
2023-01-27T06:50:49.529Z,37
2023-01-27T06:51:49.529Z,37
2023-01-27T06:52:49.529Z,53
2023-01-27T06:53:49.529Z,53
2023-01-27T06:54:49.530Z,53
2023-01-27T06:55:49.531Z,53
2023-01-27T06:56:49.533Z,53
2023-01-27T06:57:49.534Z,72
2023-01-27T06:58:49.533Z,72
2023-01-27T06:59:49.532Z,72
2023-01-27T07:00:49.530Z,72
2023-01-27T07:01:49.565Z,72
2023-01-27T07:02:49.626Z,92
2023-01-27T07:03:49.539Z,92
2023-01-27T07:04:49.536Z,92
2023-01-27T07:05:49.558Z,92
2023-01-27T07:06:49.535Z,92
2023-01-27T07:07:49.548Z,108
2023-01-27T07:08:49.540Z,108
2023-01-27T07:09:52.537Z,108
2023-01-27T07:10:49.559Z,108
2023-01-27T07:11:49.536Z,108
2023-01-27T07:12:49.545Z,155
2023-01-27T07:13:49.541Z,155
2023-01-27T07:14:49.545Z,155
2023-01-27T07:15:49.539Z,155
2023-01-27T07:16:49.547Z,155
2023-01-27T07:17:49.554Z,212
2023-01-27T07:18:49.540Z,212
2023-01-27T07:19:49.543Z,212
2023-01-27T07:20:49.555Z,212
2023-01-27T07:21:49.562Z,212
2023-01-27T07:22:49.543Z,272
2023-01-27T07:23:49.563Z,272
2023-01-27T07:24:49.564Z,272
2023-01-27T07:25:49.547Z,272
2023-01-27T07:26:49.544Z,272
2023-01-27T07:27:49.542Z,302
2023-01-27T07:28:49.543Z,302
2023-01-27T07:29:49.542Z,302
2023-01-27T07:30:49.558Z,302
2023-01-27T07:31:49.633Z,302
2023-01-27T07:32:49.542Z,348
2023-01-27T07:33:49.577Z,348
2023-01-27T07:34:49.543Z,348
2023-01-27T07:35:49.545Z,348
2023-01-27T07:36:49.550Z,348
2023-01-27T07:37:49.570Z,410
2023-01-27T07:38:49.545Z,410
2023-01-27T07:39:49.596Z,410
2023-01-27T07:40:49.545Z,410
2023-01-27T07:41:49.547Z,410
2023-01-27T07:42:49.543Z,410
2023-01-27T07:43:51.460Z,418
2023-01-27T07:44:49.569Z,418
2023-01-27T07:45:49.609Z,418
2023-01-27T07:46:49.550Z,418
2023-01-27T07:47:49.553Z,418
2023-01-27T07:48:49.551Z,443
2023-01-27T07:49:49.552Z,443
2023-01-27T07:50:49.551Z,443
2023-01-27T07:51:49.554Z,443
2023-01-27T07:52:49.553Z,443
2023-01-27T07:53:49.579Z,461
2023-01-27T07:54:49.555Z,461
2023-01-27T07:55:49.556Z,461
2023-01-27T07:56:49.563Z,461
2023-01-27T07:57:49.559Z,461
2023-01-27T07:58:49.563Z,548
2023-01-27T07:59:49.567Z,548
2023-01-27T08:00:49.602Z,548
2023-01-27T08:01:49.568Z,548
2023-01-27T08:02:49.709Z,548
2023-01-27T08:03:49.566Z,672
2023-01-27T08:04:53.146Z,672
2023-01-27T08:05:49.578Z,672
2023-01-27T08:06:49.571Z,672
2023-01-27T08:07:49.579Z,672
2023-01-27T08:08:49.577Z,879
2023-01-27T08:09:49.634Z,879
2023-01-27T08:10:49.585Z,879
2023-01-27T08:11:49.581Z,879
2023-01-27T08:12:49.638Z,879
2023-01-27T08:13:49.589Z,916
2023-01-27T08:14:49.582Z,916
2023-01-27T08:15:49.590Z,916
2023-01-27T08:16:49.675Z,916
2023-01-27T08:17:49.583Z,916
2023-01-27T08:18:49.586Z,953
2023-01-27T08:19:49.590Z,953
2023-01-27T08:20:49.591Z,953
2023-01-27T08:21:49.593Z,953
2023-01-27T08:22:49.605Z,953
2023-01-27T08:23:49.623Z,1198
2023-01-27T08:24:49.606Z,1198
2023-01-27T08:25:49.633Z,1198
2023-01-27T08:26:49.599Z,1198
2023-01-27T08:27:49.608Z,1198
2023-01-27T08:28:49.605Z,1535
2023-01-27T08:29:49.611Z,1535
2023-01-27T08:30:49.650Z,1535
2023-01-27T08:31:49.672Z,1535
2023-01-27T08:32:49.616Z,1535
2023-01-27T08:33:49.614Z,1661
2023-01-27T08:34:49.612Z,1661
2023-01-27T08:35:49.619Z,1661
2023-01-27T08:36:49.619Z,1661
2023-01-27T08:37:49.623Z,1661
2023-01-27T08:38:49.637Z,1563
2023-01-27T08:39:49.625Z,1563
2023-01-27T08:40:49.625Z,1563
2023-01-27T08:41:49.653Z,1563
2023-01-27T08:42:49.626Z,1563
2023-01-27T08:43:49.630Z,1503
2023-01-27T08:44:49.631Z,1503
2023-01-27T08:45:49.636Z,1503
2023-01-27T08:46:49.637Z,1503
2023-01-27T08:47:49.639Z,1503
2023-01-27T08:48:49.635Z,1673
2023-01-27T08:49:49.642Z,1673
2023-01-27T08:50:49.641Z,1673
2023-01-27T08:51:49.638Z,1673
2023-01-27T08:52:49.641Z,1673
2023-01-27T08:53:49.641Z,1763
2023-01-27T08:54:49.642Z,1763
2023-01-27T08:55:49.645Z,1763
2023-01-27T08:56:49.653Z,1763
2023-01-27T08:57:49.700Z,1763
2023-01-27T08:58:49.650Z,1799
2023-01-27T08:59:49.652Z,1799
2023-01-27T09:00:49.657Z,1799
2023-01-27T09:01:49.662Z,1799
2023-01-27T09:02:49.665Z,1799
2023-01-27T09:03:49.663Z,1705
2023-01-27T09:04:49.709Z,1705
2023-01-27T09:05:49.674Z,1705
2023-01-27T09:06:49.667Z,1705
2023-01-27T09:07:49.665Z,1705
2023-01-27T09:08:49.668Z,1630
2023-01-27T09:09:51.244Z,1630
2023-01-27T09:10:49.663Z,1630
2023-01-27T09:11:49.670Z,1630
2023-01-27T09:12:49.674Z,1630
2023-01-27T09:13:49.694Z,1605
2023-01-27T09:14:49.680Z,1605
2023-01-27T09:15:49.721Z,1605
2023-01-27T09:16:49.673Z,1605
2023-01-27T09:17:49.675Z,1605
2023-01-27T09:18:49.674Z,1736
2023-01-27T09:19:49.675Z,1736
2023-01-27T09:20:49.680Z,1736
2023-01-27T09:21:49.674Z,1736
2023-01-27T09:22:49.685Z,1736
2023-01-27T09:23:49.729Z,2058
2023-01-27T09:24:49.680Z,2058
2023-01-27T09:25:49.681Z,2058
2023-01-27T09:26:49.682Z,2058
2023-01-27T09:27:49.679Z,2058
2023-01-27T09:28:49.683Z,1978
2023-01-27T09:29:49.709Z,1978
2023-01-27T09:30:49.756Z,1978
2023-01-27T09:31:49.744Z,1978
2023-01-27T09:32:49.687Z,1978
2023-01-27T09:33:49.686Z,1986
2023-01-27T09:34:49.698Z,1986
2023-01-27T09:35:49.690Z,1986
2023-01-27T09:36:49.696Z,1986
2023-01-27T09:37:49.693Z,1986
2023-01-27T09:38:49.694Z,2020
2023-01-27T09:39:49.707Z,2020
2023-01-27T09:40:49.694Z,2020
2023-01-27T09:41:49.699Z,2020
2023-01-27T09:42:49.703Z,2020
2023-01-27T09:43:49.698Z,1974
2023-01-27T09:44:49.696Z,1974
2023-01-27T09:45:49.785Z,1974
2023-01-27T09:46:49.698Z,1974
2023-01-27T09:47:49.704Z,1974
2023-01-27T09:48:49.705Z,1912
2023-01-27T09:49:49.701Z,1912
2023-01-27T09:50:49.704Z,1912
2023-01-27T09:51:49.703Z,1912
2023-01-27T09:52:49.701Z,1912
2023-01-27T09:53:49.703Z,1755
2023-01-27T09:54:49.707Z,1755
2023-01-27T09:55:49.719Z,1755
2023-01-27T09:56:49.708Z,1755
2023-01-27T09:57:49.720Z,1755
2023-01-27T09:58:49.713Z,2072
2023-01-27T09:59:49.714Z,2072
2023-01-27T10:00:49.714Z,2072
2023-01-27T10:01:49.778Z,2072
2023-01-27T10:02:49.717Z,2072
2023-01-27T10:03:49.722Z,2272
2023-01-27T10:04:49.774Z,2272
2023-01-27T10:05:49.723Z,2272
2023-01-27T10:06:49.718Z,2272
2023-01-27T10:07:49.724Z,2272
2023-01-27T10:08:49.725Z,2023
2023-01-27T10:09:49.726Z,2023
2023-01-27T10:10:49.727Z,2023
2023-01-27T10:11:49.731Z,2023
2023-01-27T10:12:49.731Z,2023
2023-01-27T10:13:49.731Z,2001
2023-01-27T10:14:49.735Z,2001
2023-01-27T10:15:49.734Z,2001
2023-01-27T10:16:49.737Z,2001
2023-01-27T10:17:49.767Z,2001
2023-01-27T10:18:49.742Z,1949
2023-01-27T10:19:49.744Z,1949
2023-01-27T10:20:49.747Z,2545
2023-01-27T10:21:49.774Z,2545
2023-01-27T10:22:49.747Z,2545
2023-01-27T10:23:49.764Z,2545
2023-01-27T10:24:49.751Z,2545
2023-01-27T10:25:49.747Z,3011
2023-01-27T10:26:49.754Z,3011
2023-01-27T10:27:49.748Z,3011
2023-01-27T10:28:49.755Z,3011
2023-01-27T10:29:49.789Z,3011
2023-01-27T10:30:49.769Z,2687
2023-01-27T10:31:49.795Z,2687
2023-01-27T10:32:49.760Z,2687
2023-01-27T10:33:49.782Z,2687
2023-01-27T10:34:49.767Z,2687
2023-01-27T10:35:49.764Z,2413
2023-01-27T10:36:49.768Z,2417
2023-01-27T10:37:49.769Z,2376
2023-01-27T10:38:49.766Z,2376
2023-01-27T10:39:49.767Z,2376
2023-01-27T10:40:49.771Z,2376
2023-01-27T10:41:49.774Z,2376
2023-01-27T10:42:49.774Z,2942
2023-01-27T10:43:50.200Z,2942
2023-01-27T10:44:49.777Z,2942
2023-01-27T10:45:49.786Z,2942
2023-01-27T10:46:49.854Z,2942
2023-01-27T10:47:49.775Z,3371
2023-01-27T10:48:49.778Z,3371
2023-01-27T10:49:49.846Z,3371
2023-01-27T10:50:49.780Z,3371
2023-01-27T10:51:49.784Z,3371
2023-01-27T10:52:49.788Z,2880
2023-01-27T10:53:49.786Z,2880
2023-01-27T10:54:49.791Z,2880
2023-01-27T10:55:49.787Z,2880
2023-01-27T10:56:49.795Z,2880
2023-01-27T10:57:49.790Z,2199
2023-01-27T10:58:49.798Z,2199
2023-01-27T11:00:05.434Z,2199
2023-01-27T11:01:20.132Z,2199
2023-01-27T11:01:49.836Z,2199
2023-01-27T11:02:49.802Z,2410
2023-01-27T11:03:49.809Z,2410
2023-01-27T11:04:49.801Z,2410
2023-01-27T11:05:49.826Z,2410
2023-01-27T11:06:49.805Z,2520
2023-01-27T11:07:49.809Z,2520
2023-01-27T11:08:49.810Z,2520
2023-01-27T11:09:49.808Z,2520
2023-01-27T11:10:49.807Z,2520
2023-01-27T11:11:49.806Z,2658
2023-01-27T11:12:49.808Z,2658
2023-01-27T11:13:49.808Z,2658
2023-01-27T11:14:49.851Z,2658
2023-01-27T11:15:49.815Z,2658
2023-01-27T11:16:49.882Z,2536
2023-01-27T11:17:49.813Z,2536
2023-01-27T11:18:49.816Z,2536
2023-01-27T11:19:49.819Z,2536
2023-01-27T11:20:49.818Z,2536
2023-01-27T11:21:58.244Z,2519
2023-01-27T11:22:49.815Z,2519
2023-01-27T11:23:49.864Z,2519
2023-01-27T11:24:49.820Z,2519
2023-01-27T11:25:49.820Z,2720
2023-01-27T11:26:49.819Z,2720
2023-01-27T11:27:49.838Z,2720
2023-01-27T11:28:49.827Z,2814
2023-01-27T11:29:49.847Z,2814
2023-01-27T11:30:49.866Z,2814
2023-01-27T11:31:49.912Z,2956
2023-01-27T11:32:49.826Z,2956
2023-01-27T11:33:49.827Z,2956
2023-01-27T11:34:49.826Z,2956
2023-01-27T11:35:49.827Z,2956
2023-01-27T11:36:50.199Z,2772
2023-01-27T11:37:49.863Z,2772
2023-01-27T11:38:49.842Z,2772
2023-01-27T11:39:49.851Z,2772
2023-01-27T11:40:49.844Z,2772
2023-01-27T11:41:49.837Z,2777
2023-01-27T11:42:51.796Z,2777
2023-01-27T11:43:49.841Z,2777
2023-01-27T11:44:49.835Z,2777
2023-01-27T11:45:49.940Z,2777
2023-01-27T11:46:49.841Z,2790
2023-01-27T11:47:49.830Z,2790
2023-01-27T11:48:49.834Z,2790
2023-01-27T11:49:49.838Z,2790
2023-01-27T11:50:49.847Z,2790
2023-01-27T11:51:49.841Z,2986
2023-01-27T11:52:49.839Z,2986
2023-01-27T11:53:49.861Z,2986
2023-01-27T11:54:49.834Z,2986
2023-01-27T11:55:49.843Z,2986
2023-01-27T11:56:49.854Z,2870
2023-01-27T11:57:49.839Z,2870
2023-01-27T11:58:49.853Z,2870
2023-01-27T11:59:49.845Z,2870
2023-01-27T12:00:49.841Z,2870
2023-01-27T12:01:49.842Z,2981
2023-01-27T12:02:49.840Z,2981
2023-01-27T12:03:49.896Z,2981
2023-01-27T12:04:49.956Z,2981
2023-01-27T12:05:49.846Z,2981
2023-01-27T12:06:49.852Z,3005
2023-01-27T12:07:49.858Z,3064
2023-01-27T12:08:49.845Z,3028
2023-01-27T12:09:49.873Z,3028
2023-01-27T12:10:49.849Z,3272
2023-01-27T12:11:49.846Z,3272
2023-01-27T12:12:49.852Z,3272
2023-01-27T12:13:49.852Z,3272
2023-01-27T12:14:49.856Z,3272
2023-01-27T12:15:49.909Z,3289
2023-01-27T12:16:49.862Z,3289
2023-01-27T12:17:49.854Z,3289
2023-01-27T12:18:49.854Z,3289
2023-01-27T12:19:49.853Z,3289
2023-01-27T12:20:49.856Z,3063
2023-01-27T12:21:49.856Z,3063
2023-01-27T12:22:49.855Z,3063
2023-01-27T12:23:49.884Z,3063
2023-01-27T12:24:49.856Z,3063
2023-01-27T12:25:50.698Z,2887
2023-01-27T12:26:49.857Z,2887
2023-01-27T12:27:49.858Z,2887
2023-01-27T12:28:49.856Z,2887
2023-01-27T12:29:49.855Z,2887
2023-01-27T12:30:49.915Z,2858
2023-01-27T12:31:49.942Z,2858
2023-01-27T12:32:49.862Z,2858
2023-01-27T12:33:49.856Z,2858
2023-01-27T12:34:49.859Z,2858
2023-01-27T12:35:49.863Z,2983
2023-01-27T12:36:49.863Z,2983
2023-01-27T12:37:49.862Z,2872
2023-01-27T12:38:49.862Z,2872
2023-01-27T12:39:49.864Z,2872
2023-01-27T12:40:49.864Z,2872
2023-01-27T12:41:49.886Z,2872
2023-01-27T12:42:49.861Z,2711
2023-01-27T12:43:49.864Z,2711
2023-01-27T12:44:49.863Z,2711
2023-01-27T12:45:49.865Z,2711
2023-01-27T12:46:49.924Z,2711
2023-01-27T12:47:49.873Z,2442
2023-01-27T12:48:49.857Z,2442
2023-01-27T12:49:49.866Z,2372
2023-01-27T12:50:49.865Z,2372
2023-01-27T12:51:49.861Z,2372
2023-01-27T12:52:49.864Z,2372
2023-01-27T12:53:49.864Z,2372
2023-01-27T12:54:49.867Z,2187
2023-01-27T12:55:49.864Z,2187
2023-01-27T12:56:49.862Z,2187
2023-01-27T12:57:49.887Z,2187
2023-01-27T12:58:52.240Z,2187
2023-01-27T12:59:49.868Z,2011
2023-01-27T13:00:49.920Z,2011
2023-01-27T13:01:49.880Z,2011
2023-01-27T13:02:49.865Z,2011
2023-01-27T13:03:49.920Z,2011
2023-01-27T13:04:49.874Z,2001
2023-01-27T13:05:49.868Z,2001
2023-01-27T13:06:49.870Z,2001
2023-01-27T13:07:49.880Z,2001
2023-01-27T13:08:49.874Z,2001
2023-01-27T13:09:49.875Z,2024
2023-01-27T13:10:49.879Z,2024
2023-01-27T13:11:49.878Z,2024
2023-01-27T13:12:49.876Z,2024
2023-01-27T13:13:49.917Z,2024
2023-01-27T13:14:49.934Z,2028
2023-01-27T13:15:49.893Z,2028
2023-01-27T13:16:52.033Z,2028
2023-01-27T13:17:49.880Z,2028
2023-01-27T13:18:49.884Z,2028
2023-01-27T13:19:49.883Z,1996
2023-01-27T13:20:49.884Z,1996
2023-01-27T13:21:49.888Z,1996
2023-01-27T13:22:49.888Z,1996
2023-01-27T13:23:50.023Z,1996
2023-01-27T13:24:49.886Z,1733
2023-01-27T13:25:49.889Z,1733
2023-01-27T13:26:49.890Z,1733
2023-01-27T13:27:49.891Z,1733
2023-01-27T13:28:52.973Z,1733
2023-01-27T13:29:49.940Z,1550
2023-01-27T13:30:52.228Z,1550
2023-01-27T13:31:49.948Z,1550
2023-01-27T13:32:49.897Z,1550
2023-01-27T13:33:49.899Z,1550
2023-01-27T13:34:49.901Z,1491
2023-01-27T13:35:49.898Z,1491
2023-01-27T13:36:49.897Z,1491
2023-01-27T13:37:49.896Z,1461
2023-01-27T13:38:49.897Z,1461
2023-01-27T13:39:49.897Z,1461
2023-01-27T13:40:49.895Z,1429
2023-01-27T13:41:49.926Z,1429
2023-01-27T13:42:49.970Z,1429
2023-01-27T13:43:49.905Z,1429
2023-01-27T13:44:49.913Z,1429
2023-01-27T13:45:49.931Z,1278
2023-01-27T13:46:49.934Z,1278
2023-01-27T13:47:49.911Z,1278
2023-01-27T13:48:49.913Z,1278
2023-01-27T13:49:49.911Z,1278
2023-01-27T13:50:49.919Z,1097
2023-01-27T13:51:49.916Z,1097
2023-01-27T13:52:49.912Z,1097
2023-01-27T13:53:49.911Z,1097
2023-01-27T13:54:49.916Z,1097
2023-01-27T13:55:49.918Z,1081
2023-01-27T13:56:49.915Z,1081
2023-01-27T13:57:49.916Z,1081
2023-01-27T13:58:49.939Z,1081
2023-01-27T13:59:49.917Z,1081
2023-01-27T14:00:49.917Z,1123
2023-01-27T14:01:50.123Z,1123
2023-01-27T14:02:49.927Z,1123